logo tempoitalia

Diretta Meteo Wroclaw Ii, Polonialunedì 31 agosto ore 07:00

Mappa
Sereno 16 °C Sereno 24 Ore: T.min 14 T.max 27
Ponente Nord Km/h 1.8 Punto di rugiada: 13 °C Umidità: 82% Visibilità: 10 Km
Il sole sorge alle: 06:04 Il sole tramonta alle: 19:41
31 Agosto 2026 07:00 tempo osservato: Sereno Sereno 16 82 1013 vento: Nord N 1.8
31 Agosto 2026 06:30 tempo osservato: Nebbia Nebbia 15 87 1013 vento: Nord N 1.8
31 Agosto 2026 06:00 tempo osservato: Nebbia Nebbia 14 93 1013 vento: Nord N 1.8
31 Agosto 2026 05:30 tempo osservato: Sereno Sereno 14 93 1013 vento: Nord N 1.8
31 Agosto 2026 05:00 tempo osservato: Sereno Sereno 14 93 1014 vento: Nord N 3.7
31 Agosto 2026 04:30 tempo osservato: Sereno Sereno 14 93 1014 vento: Nord N 1.8
31 Agosto 2026 04:00 tempo osservato: Sereno Sereno 14 93 1014 vento: Nord N 3.7
31 Agosto 2026 03:30 tempo osservato: Sereno Sereno 16 87 1014 vento: Nord N 3.7
31 Agosto 2026 03:00 tempo osservato: Sereno Sereno 15 87 1014 vento: Nord N 1.8
31 Agosto 2026 02:30 tempo osservato: Sereno Sereno 16 87 1014 vento: Nord N 1.8
31 Agosto 2026 02:00 tempo osservato: Sereno Sereno 16 87 1014 vento: Nord N 3.7
31 Agosto 2026 01:30 tempo osservato: Sereno Sereno 17 82 1014 vento: Nord N 1.8
31 Agosto 2026 01:00 tempo osservato: Sereno Sereno 18 77 1014 vento: Nord N 3.7
31 Agosto 2026 00:30 tempo osservato: Sereno Sereno 18 77 1014 vento: Nord N 3.7
31 Agosto 2026 00:00 tempo osservato: Sereno Sereno 18 77 1014 vento: Nord N 3.7
30 Agosto 2026 23:30 tempo osservato: Sereno Sereno 18 77 1014 vento: Nord N 3.7
30 Agosto 2026 23:00 tempo osservato: Sereno Sereno 19 72 1014 vento: Nord N 1.8
30 Agosto 2026 22:30 tempo osservato: Sereno Sereno 19 72 1014 vento: Nord SO 7.4
30 Agosto 2026 22:00 tempo osservato: Sereno Sereno 19 72 1014 vento: Nord S/SO 9.3
30 Agosto 2026 21:30 tempo osservato: Sereno Sereno 21 64 1014 vento: Nord N 5.5
30 Agosto 2026 21:00 tempo osservato: Sereno Sereno 21 68 1014 vento: Nord S/SO 7.4
30 Agosto 2026 20:30 tempo osservato: Sereno Sereno 22 64 1013 vento: Nord S/SO 9.3
30 Agosto 2026 20:00 tempo osservato: Sereno Sereno 22 64 1013 vento: Nord SO 7.4
30 Agosto 2026 19:30 tempo osservato: Sereno Sereno 24 57 1013 vento: Nord O 7.4
30 Agosto 2026 19:00 tempo osservato: Sereno Sereno 25 50 1013 vento: Nord SO 9.3
30 Agosto 2026 18:30 tempo osservato: Sereno Sereno 26 50 1013 vento: Nord N 5.5
30 Agosto 2026 18:00 tempo osservato: Sereno Sereno 26 50 1013 vento: Nord S/SO 13
30 Agosto 2026 17:30 tempo osservato: Sereno Sereno 26 50 1013 vento: Nord S/SO 16.7
30 Agosto 2026 17:00 tempo osservato: Sereno Sereno 26 47 1013 vento: Nord SO 22.2
30 Agosto 2026 16:30 tempo osservato: Sereno Sereno 27 44 1013 vento: Nord SO 22.2
30 Agosto 2026 16:00 tempo osservato: Sereno Sereno 26 47 1013 vento: Nord SO 24
30 Agosto 2026 15:30 tempo osservato: Sereno Sereno 27 44 1013 vento: Nord SO 22.2
30 Agosto 2026 15:00 tempo osservato: Sereno Sereno 27 42 1013 vento: Nord SO 20.3
30 Agosto 2026 14:30 tempo osservato: Sereno Sereno 27 42 1013 vento: Nord SO 27.8
30 Agosto 2026 14:00 tempo osservato: Sereno Sereno 27 42 1013 vento: Nord S/SO 24
30 Agosto 2026 13:30 tempo osservato: Sereno Sereno 27 42 1013 vento: Nord SO 24
30 Agosto 2026 13:00 tempo osservato: Poco Nuvoloso Poco Nuvoloso 26 44 1013 vento: Nord S 18.5
30 Agosto 2026 12:30 tempo osservato: Poco Nuvoloso Poco Nuvoloso 25 50 1013 vento: Nord S 20.3
30 Agosto 2026 12:00 tempo osservato: Poco Nuvoloso Poco Nuvoloso 24 50 1014 vento: Nord S 16.7
30 Agosto 2026 11:30 tempo osservato: Sereno Sereno 24 50 1014 vento: Nord S 18.5
30 Agosto 2026 11:00 tempo osservato: Sereno Sereno 23 53 1014 vento: Nord S 14.8
30 Agosto 2026 10:30 tempo osservato: Sereno Sereno 23 56 1014 vento: Nord S 13
30 Agosto 2026 10:00 tempo osservato: Sereno Sereno 22 64 1014 vento: Nord S/SE 7.4
30 Agosto 2026 09:30 tempo osservato: Sereno Sereno 21 68 1014 vento: Nord SE 9.3
30 Agosto 2026 09:00 tempo osservato: Sereno Sereno 18 77 1014 vento: Nord N 5.5
30 Agosto 2026 08:30 tempo osservato: Sereno Sereno 17 82 1014 vento: Nord SE 9.3
30 Agosto 2026 08:00 tempo osservato: Sereno Sereno 15 93 1014 vento: Nord E/SE 9.3